sensor_id;sensor_type;location;lat;lon;timestamp;temperature;humidity
3528;DHT22;1778;47.966;7.854;2023-01-29T00:00:05;1.80;99.90
3528;DHT22;1778;47.966;7.854;2023-01-29T00:01:13;1.80;99.90
3528;DHT22;1778;47.966;7.854;2023-01-29T00:02:15;1.80;99.90
3528;DHT22;1778;47.966;7.854;2023-01-29T00:03:17;1.70;99.90
3528;DHT22;1778;47.966;7.854;2023-01-29T00:04:18;1.60;99.90
3528;DHT22;1778;47.966;7.854;2023-01-29T00:05:20;1.60;99.90
3528;DHT22;1778;47.966;7.854;2023-01-29T00:06:28;1.50;99.90
3528;DHT22;1778;47.966;7.854;2023-01-29T00:07:30;1.50;99.90
3528;DHT22;1778;47.966;7.854;2023-01-29T00:08:33;1.50;99.90
3528;DHT22;1778;47.966;7.854;2023-01-29T00:09:35;1.50;99.90
3528;DHT22;1778;47.966;7.854;2023-01-29T00:10:37;1.50;99.90
3528;DHT22;1778;47.966;7.854;2023-01-29T00:11:39;1.40;99.90
3528;DHT22;1778;47.966;7.854;2023-01-29T00:12:40;1.50;99.90
3528;DHT22;1778;47.966;7.854;2023-01-29T00:13:42;1.40;99.90
3528;DHT22;1778;47.966;7.854;2023-01-29T00:14:44;1.50;99.90
3528;DHT22;1778;47.966;7.854;2023-01-29T00:15:56;1.40;99.90
3528;DHT22;1778;47.966;7.854;2023-01-29T00:16:58;1.50;99.90
3528;DHT22;1778;47.966;7.854;2023-01-29T00:18:01;1.50;99.90
3528;DHT22;1778;47.966;7.854;2023-01-29T00:19:02;1.50;99.90
3528;DHT22;1778;47.966;7.854;2023-01-29T00:20:04;1.50;99.90
3528;DHT22;1778;47.966;7.854;2023-01-29T00:21:13;1.50;99.90
3528;DHT22;1778;47.966;7.854;2023-01-29T00:22:15;1.50;99.90
3528;DHT22;1778;47.966;7.854;2023-01-29T00:23:17;1.50;99.90
3528;DHT22;1778;47.966;7.854;2023-01-29T00:24:19;1.50;99.90
3528;DHT22;1778;47.966;7.854;2023-01-29T00:25:21;1.50;99.90
3528;DHT22;1778;47.966;7.854;2023-01-29T00:26:23;1.50;99.90
3528;DHT22;1778;47.966;7.854;2023-01-29T00:27:25;1.60;99.90
3528;DHT22;1778;47.966;7.854;2023-01-29T00:28:28;1.60;99.90
3528;DHT22;1778;47.966;7.854;2023-01-29T00:29:29;1.60;99.90
3528;DHT22;1778;47.966;7.854;2023-01-29T00:30:31;1.60;99.90
3528;DHT22;1778;47.966;7.854;2023-01-29T00:31:33;1.50;99.90
3528;DHT22;1778;47.966;7.854;2023-01-29T00:32:35;1.50;99.90
3528;DHT22;1778;47.966;7.854;2023-01-29T00:33:36;1.60;99.90
3528;DHT22;1778;47.966;7.854;2023-01-29T00:34:38;1.60;99.90
3528;DHT22;1778;47.966;7.854;2023-01-29T00:35:40;1.60;99.90
3528;DHT22;1778;47.966;7.854;2023-01-29T00:36:42;1.60;99.90
3528;DHT22;1778;47.966;7.854;2023-01-29T00:37:46;1.60;99.90
3528;DHT22;1778;47.966;7.854;2023-01-29T00:38:56;1.70;99.90
3528;DHT22;1778;47.966;7.854;2023-01-29T00:40:03;1.60;99.90
3528;DHT22;1778;47.966;7.854;2023-01-29T00:41:13;1.70;99.90
3528;DHT22;1778;47.966;7.854;2023-01-29T00:42:33;1.70;99.90
3528;DHT22;1778;47.966;7.854;2023-01-29T00:43:53;1.70;99.90
3528;DHT22;1778;47.966;7.854;2023-01-29T00:45:13;1.70;99.90
3528;DHT22;1778;47.966;7.854;2023-01-29T00:46:15;1.70;99.90
3528;DHT22;1778;47.966;7.854;2023-01-29T00:47:17;1.70;99.90
3528;DHT22;1778;47.966;7.854;2023-01-29T00:48:37;1.70;99.90
3528;DHT22;1778;47.966;7.854;2023-01-29T00:49:39;1.80;99.90
3528;DHT22;1778;47.966;7.854;2023-01-29T00:50:40;1.70;99.90
3528;DHT22;1778;47.966;7.854;2023-01-29T00:51:42;1.80;99.90
3528;DHT22;1778;47.966;7.854;2023-01-29T00:52:44;1.70;99.90
3528;DHT22;1778;47.966;7.854;2023-01-29T00:53:46;1.70;99.90
3528;DHT22;1778;47.966;7.854;2023-01-29T00:54:48;1.70;99.90
3528;DHT22;1778;47.966;7.854;2023-01-29T00:55:49;1.60;99.90
3528;DHT22;1778;47.966;7.854;2023-01-29T00:56:51;1.60;99.90
3528;DHT22;1778;47.966;7.854;2023-01-29T00:57:53;1.60;99.90
3528;DHT22;1778;47.966;7.854;2023-01-29T00:58:55;1.70;99.90
3528;DHT22;1778;47.966;7.854;2023-01-29T00:59:57;1.70;99.90
3528;DHT22;1778;47.966;7.854;2023-01-29T01:01:00;1.70;99.90
3528;DHT22;1778;47.966;7.854;2023-01-29T01:02:02;1.60;99.90
3528;DHT22;1778;47.966;7.854;2023-01-29T01:03:22;1.70;99.90
3528;DHT22;1778;47.966;7.854;2023-01-29T01:04:24;1.60;99.90
3528;DHT22;1778;47.966;7.854;2023-01-29T01:05:26;1.60;99.90
3528;DHT22;1778;47.966;7.854;2023-01-29T01:06:28;1.70;99.90
3528;DHT22;1778;47.966;7.854;2023-01-29T01:07:30;1.60;99.90
3528;DHT22;1778;47.966;7.854;2023-01-29T01:08:32;1.60;99.90
3528;DHT22;1778;47.966;7.854;2023-01-29T01:09:53;1.60;99.90
3528;DHT22;1778;47.966;7.854;2023-01-29T01:11:14;1.60;99.90
3528;DHT22;1778;47.966;7.854;2023-01-29T01:12:15;1.60;99.90
3528;DHT22;1778;47.966;7.854;2023-01-29T01:13:17;1.60;99.90
3528;DHT22;1778;47.966;7.854;2023-01-29T01:14:19;1.50;99.90
3528;DHT22;1778;47.966;7.854;2023-01-29T01:15:23;1.50;99.90
3528;DHT22;1778;47.966;7.854;2023-01-29T01:16:25;1.40;99.90
3528;DHT22;1778;47.966;7.854;2023-01-29T01:17:27;1.50;99.90
3528;DHT22;1778;47.966;7.854;2023-01-29T01:18:29;1.50;99.90
3528;DHT22;1778;47.966;7.854;2023-01-29T01:19:32;1.50;99.90
3528;DHT22;1778;47.966;7.854;2023-01-29T01:20:34;1.50;99.90
3528;DHT22;1778;47.966;7.854;2023-01-29T01:21:36;1.50;99.90
3528;DHT22;1778;47.966;7.854;2023-01-29T01:22:38;1.60;99.90
3528;DHT22;1778;47.966;7.854;2023-01-29T01:23:40;1.60;99.90
3528;DHT22;1778;47.966;7.854;2023-01-29T01:24:41;1.60;99.90
3528;DHT22;1778;47.966;7.854;2023-01-29T01:25:43;1.60;99.90
3528;DHT22;1778;47.966;7.854;2023-01-29T01:26:45;1.50;99.90
3528;DHT22;1778;47.966;7.854;2023-01-29T01:27:46;1.60;99.90
3528;DHT22;1778;47.966;7.854;2023-01-29T01:28:48;1.50;99.90
3528;DHT22;1778;47.966;7.854;2023-01-29T01:29:50;1.50;99.90
3528;DHT22;1778;47.966;7.854;2023-01-29T01:30:51;1.50;99.90
3528;DHT22;1778;47.966;7.854;2023-01-29T01:31:53;1.40;99.90
3528;DHT22;1778;47.966;7.854;2023-01-29T01:32:54;1.50;99.90
3528;DHT22;1778;47.966;7.854;2023-01-29T01:33:56;1.50;99.90
3528;DHT22;1778;47.966;7.854;2023-01-29T01:34:59;1.40;99.90
3528;DHT22;1778;47.966;7.854;2023-01-29T01:36:01;1.30;99.90
3528;DHT22;1778;47.966;7.854;2023-01-29T01:37:03;1.30;99.90
3528;DHT22;1778;47.966;7.854;2023-01-29T01:38:04;1.40;99.90
3528;DHT22;1778;47.966;7.854;2023-01-29T01:39:06;1.40;99.90
3528;DHT22;1778;47.966;7.854;2023-01-29T01:40:13;1.40;99.90
3528;DHT22;1778;47.966;7.854;2023-01-29T01:41:20;1.30;99.90
3528;DHT22;1778;47.966;7.854;2023-01-29T01:42:29;1.30;99.90
3528;DHT22;1778;47.966;7.854;2023-01-29T01:44:54;1.20;99.90
3528;DHT22;1778;47.966;7.854;2023-01-29T01:45:56;1.20;99.90
3528;DHT22;1778;47.966;7.854;2023-01-29T01:46:59;1.30;99.90
3528;DHT22;1778;47.966;7.854;2023-01-29T01:48:22;1.30;99.90
3528;DHT22;1778;47.966;7.854;2023-01-29T01:49:25;1.30;99.90
3528;DHT22;1778;47.966;7.854;2023-01-29T01:50:36;1.30;99.90
3528;DHT22;1778;47.966;7.854;2023-01-29T01:51:43;1.30;99.90
3528;DHT22;1778;47.966;7.854;2023-01-29T01:52:50;1.30;99.90
3528;DHT22;1778;47.966;7.854;2023-01-29T01:54:05;1.30;99.90
3528;DHT22;1778;47.966;7.854;2023-01-29T01:55:08;1.30;99.90
3528;DHT22;1778;47.966;7.854;2023-01-29T01:56:17;1.20;99.90
3528;DHT22;1778;47.966;7.854;2023-01-29T01:57:22;1.20;99.90
3528;DHT22;1778;47.966;7.854;2023-01-29T01:58:37;1.20;99.90
3528;DHT22;1778;47.966;7.854;2023-01-29T01:59:40;1.20;99.90
3528;DHT22;1778;47.966;7.854;2023-01-29T02:00:43;1.20;99.90
3528;DHT22;1778;47.966;7.854;2023-01-29T02:01:49;1.10;99.90
3528;DHT22;1778;47.966;7.854;2023-01-29T02:02:52;1.10;99.90
3528;DHT22;1778;47.966;7.854;2023-01-29T02:04:16;1.10;99.90
3528;DHT22;1778;47.966;7.854;2023-01-29T02:05:38;1.00;99.90
3528;DHT22;1778;47.966;7.854;2023-01-29T02:07:00;1.00;99.90
3528;DHT22;1778;47.966;7.854;2023-01-29T02:10:13;1.00;99.90
3528;DHT22;1778;47.966;7.854;2023-01-29T02:11:16;0.90;99.90
3528;DHT22;1778;47.966;7.854;2023-01-29T02:12:19;0.90;99.90
3528;DHT22;1778;47.966;7.854;2023-01-29T02:13:21;0.90;99.90
3528;DHT22;1778;47.966;7.854;2023-01-29T02:14:23;0.80;99.90
3528;DHT22;1778;47.966;7.854;2023-01-29T02:15:25;0.80;99.90
3528;DHT22;1778;47.966;7.854;2023-01-29T02:16:29;0.80;99.90
3528;DHT22;1778;47.966;7.854;2023-01-29T02:17:31;0.90;99.90
3528;DHT22;1778;47.966;7.854;2023-01-29T02:18:33;1.00;99.90
3528;DHT22;1778;47.966;7.854;2023-01-29T02:23:07;0.80;99.90
3528;DHT22;1778;47.966;7.854;2023-01-29T02:25:49;0.60;99.90
3528;DHT22;1778;47.966;7.854;2023-01-29T02:27:16;0.60;99.90
3528;DHT22;1778;47.966;7.854;2023-01-29T02:30:01;0.60;99.90
3528;DHT22;1778;47.966;7.854;2023-01-29T02:34:24;0.30;99.90
3528;DHT22;1778;47.966;7.854;2023-01-29T02:35:34;0.30;99.90
3528;DHT22;1778;47.966;7.854;2023-01-29T02:36:52;0.20;99.90
3528;DHT22;1778;47.966;7.854;2023-01-29T02:39:39;0.10;99.90
3528;DHT22;1778;47.966;7.854;2023-01-29T02:42:28;0.10;99.90
3528;DHT22;1778;47.966;7.854;2023-01-29T02:45:17;0.10;99.90
3528;DHT22;1778;47.966;7.854;2023-01-29T02:47:41;0.10;99.90
3528;DHT22;1778;47.966;7.854;2023-01-29T02:48:49;0.10;99.90
3528;DHT22;1778;47.966;7.854;2023-01-29T02:50:05;0.10;99.90
3528;DHT22;1778;47.966;7.854;2023-01-29T02:51:23;0.10;99.90
3528;DHT22;1778;47.966;7.854;2023-01-29T02:52:35;0.10;99.90
3528;DHT22;1778;47.966;7.854;2023-01-29T02:55:14;0.10;99.90
3528;DHT22;1778;47.966;7.854;2023-01-29T02:56:26;0.10;99.90
3528;DHT22;1778;47.966;7.854;2023-01-29T02:57:36;0.10;99.90
3528;DHT22;1778;47.966;7.854;2023-01-29T02:58:46;0.10;99.90
3528;DHT22;1778;47.966;7.854;2023-01-29T03:01:03;0.10;99.90
3528;DHT22;1778;47.966;7.854;2023-01-29T03:02:14;0.10;99.90
3528;DHT22;1778;47.966;7.854;2023-01-29T03:03:21;0.10;99.90
3528;DHT22;1778;47.966;7.854;2023-01-29T03:04:32;0.10;99.90
3528;DHT22;1778;47.966;7.854;2023-01-29T03:06:06;0.10;99.90
3528;DHT22;1778;47.966;7.854;2023-01-29T03:07:26;0.10;99.90
3528;DHT22;1778;47.966;7.854;2023-01-29T03:08:59;0.20;99.90
3528;DHT22;1778;47.966;7.854;2023-01-29T03:10:03;0.10;99.90
3528;DHT22;1778;47.966;7.854;2023-01-29T03:11:05;0.20;99.90
3528;DHT22;1778;47.966;7.854;2023-01-29T03:12:16;0.10;99.90
3528;DHT22;1778;47.966;7.854;2023-01-29T03:14:48;0.10;99.90
3528;DHT22;1778;47.966;7.854;2023-01-29T03:16:23;0.10;99.90
3528;DHT22;1778;47.966;7.854;2023-01-29T03:17:33;0.10;99.90
3528;DHT22;1778;47.966;7.854;2023-01-29T03:18:40;0.00;99.90
3528;DHT22;1778;47.966;7.854;2023-01-29T03:19:48;0.10;99.90
3528;DHT22;1778;47.966;7.854;2023-01-29T03:21:00;0.00;99.90
3528;DHT22;1778;47.966;7.854;2023-01-29T03:22:05;0.10;99.90
3528;DHT22;1778;47.966;7.854;2023-01-29T03:23:15;0.00;99.90
3528;DHT22;1778;47.966;7.854;2023-01-29T03:26:00;0.00;99.90
3528;DHT22;1778;47.966;7.854;2023-01-29T03:27:26;0.00;99.90
3528;DHT22;1778;47.966;7.854;2023-01-29T03:28:47;-0.10;99.90
3528;DHT22;1778;47.966;7.854;2023-01-29T03:30:10;0.00;99.90
3528;DHT22;1778;47.966;7.854;2023-01-29T03:31:41;0.00;99.90
3528;DHT22;1778;47.966;7.854;2023-01-29T03:33:05;0.10;99.90
3528;DHT22;1778;47.966;7.854;2023-01-29T03:34:12;0.10;99.90
3528;DHT22;1778;47.966;7.854;2023-01-29T03:35:21;0.10;99.90
3528;DHT22;1778;47.966;7.854;2023-01-29T03:37:10;0.10;99.90
3528;DHT22;1778;47.966;7.854;2023-01-29T03:38:05;0.00;99.90
3528;DHT22;1778;47.966;7.854;2023-01-29T03:39:08;0.10;99.90
3528;DHT22;1778;47.966;7.854;2023-01-29T03:40:12;0.10;99.90
3528;DHT22;1778;47.966;7.854;2023-01-29T03:42:30;0.20;99.90
3528;DHT22;1778;47.966;7.854;2023-01-29T03:47:50;0.10;99.90
3528;DHT22;1778;47.966;7.854;2023-01-29T03:51:18;0.10;99.90
3528;DHT22;1778;47.966;7.854;2023-01-29T03:52:50;0.10;99.90
3528;DHT22;1778;47.966;7.854;2023-01-29T03:55:48;0.00;99.90
3528;DHT22;1778;47.966;7.854;2023-01-29T03:57:03;0.00;99.90
3528;DHT22;1778;47.966;7.854;2023-01-29T03:58:24;0.00;99.90
3528;DHT22;1778;47.966;7.854;2023-01-29T03:59:48;-0.10;99.90
3528;DHT22;1778;47.966;7.854;2023-01-29T04:01:28;-0.10;99.90
3528;DHT22;1778;47.966;7.854;2023-01-29T04:02:42;-0.10;99.90
3528;DHT22;1778;47.966;7.854;2023-01-29T04:03:52;-0.10;99.90
3528;DHT22;1778;47.966;7.854;2023-01-29T04:05:16;-0.10;99.90
3528;DHT22;1778;47.966;7.854;2023-01-29T04:06:41;-0.10;99.90
3528;DHT22;1778;47.966;7.854;2023-01-29T04:07:50;-0.20;99.90
3528;DHT22;1778;47.966;7.854;2023-01-29T04:08:58;-0.20;99.90
3528;DHT22;1778;47.966;7.854;2023-01-29T04:10:14;-0.10;99.90
3528;DHT22;1778;47.966;7.854;2023-01-29T04:11:19;-0.20;99.90
3528;DHT22;1778;47.966;7.854;2023-01-29T04:12:57;-0.20;99.90
3528;DHT22;1778;47.966;7.854;2023-01-29T04:13:59;-0.20;99.90
3528;DHT22;1778;47.966;7.854;2023-01-29T04:15:04;-0.20;99.90
3528;DHT22;1778;47.966;7.854;2023-01-29T04:16:13;-0.20;99.90
3528;DHT22;1778;47.966;7.854;2023-01-29T04:17:52;-0.20;99.90
3528;DHT22;1778;47.966;7.854;2023-01-29T04:19:09;-0.20;99.90
3528;DHT22;1778;47.966;7.854;2023-01-29T04:20:13;-0.30;99.90
3528;DHT22;1778;47.966;7.854;2023-01-29T04:21:16;-0.20;99.90
3528;DHT22;1778;47.966;7.854;2023-01-29T04:22:34;-0.10;99.90
3528;DHT22;1778;47.966;7.854;2023-01-29T04:23:37;-0.20;99.90
3528;DHT22;1778;47.966;7.854;2023-01-29T04:24:39;-0.20;99.90
3528;DHT22;1778;47.966;7.854;2023-01-29T04:25:44;-0.30;99.90
3528;DHT22;1778;47.966;7.854;2023-01-29T04:28:24;-0.30;99.90
3528;DHT22;1778;47.966;7.854;2023-01-29T04:34:28;-0.30;99.90
3528;DHT22;1778;47.966;7.854;2023-01-29T04:35:50;-0.40;99.90
3528;DHT22;1778;47.966;7.854;2023-01-29T04:41:08;-0.30;99.90
3528;DHT22;1778;47.966;7.854;2023-01-29T04:42:28;-0.30;99.90
3528;DHT22;1778;47.966;7.854;2023-01-29T04:45:15;-0.30;99.90
3528;DHT22;1778;47.966;7.854;2023-01-29T04:46:19;-0.30;99.90
3528;DHT22;1778;47.966;7.854;2023-01-29T04:51:46;-0.20;99.90
3528;DHT22;1778;47.966;7.854;2023-01-29T04:53:30;-0.20;99.90
3528;DHT22;1778;47.966;7.854;2023-01-29T04:54:49;-0.20;99.90
3528;DHT22;1778;47.966;7.854;2023-01-29T04:57:52;-0.10;99.90
3528;DHT22;1778;47.966;7.854;2023-01-29T04:59:02;-0.20;99.90
3528;DHT22;1778;47.966;7.854;2023-01-29T05:00:12;-0.20;99.90
3528;DHT22;1778;47.966;7.854;2023-01-29T05:01:18;-0.20;99.90
3528;DHT22;1778;47.966;7.854;2023-01-29T05:02:21;-0.10;99.90
3528;DHT22;1778;47.966;7.854;2023-01-29T05:03:25;-0.10;99.90
3528;DHT22;1778;47.966;7.854;2023-01-29T05:04:30;0.00;99.90
3528;DHT22;1778;47.966;7.854;2023-01-29T05:05:32;-0.10;99.90
3528;DHT22;1778;47.966;7.854;2023-01-29T05:06:34;-0.10;99.90
3528;DHT22;1778;47.966;7.854;2023-01-29T05:07:38;-0.10;99.90
3528;DHT22;1778;47.966;7.854;2023-01-29T05:08:40;0.00;99.90
3528;DHT22;1778;47.966;7.854;2023-01-29T05:09:44;0.00;99.90
3528;DHT22;1778;47.966;7.854;2023-01-29T05:10:48;0.00;99.90
3528;DHT22;1778;47.966;7.854;2023-01-29T05:11:50;0.00;99.90
3528;DHT22;1778;47.966;7.854;2023-01-29T05:13:02;0.00;99.90
3528;DHT22;1778;47.966;7.854;2023-01-29T05:14:07;0.00;99.90
3528;DHT22;1778;47.966;7.854;2023-01-29T05:15:16;0.00;99.90
3528;DHT22;1778;47.966;7.854;2023-01-29T05:16:25;0.10;99.90
3528;DHT22;1778;47.966;7.854;2023-01-29T05:17:28;0.10;99.90
3528;DHT22;1778;47.966;7.854;2023-01-29T05:18:31;0.20;99.90
3528;DHT22;1778;47.966;7.854;2023-01-29T05:19:32;0.20;99.90
3528;DHT22;1778;47.966;7.854;2023-01-29T05:20:39;0.20;99.90
3528;DHT22;1778;47.966;7.854;2023-01-29T05:21:43;0.20;99.90
3528;DHT22;1778;47.966;7.854;2023-01-29T05:22:46;0.20;99.90
3528;DHT22;1778;47.966;7.854;2023-01-29T05:24:12;0.20;99.90
3528;DHT22;1778;47.966;7.854;2023-01-29T05:25:26;0.20;99.90
3528;DHT22;1778;47.966;7.854;2023-01-29T05:26:28;0.20;99.90
3528;DHT22;1778;47.966;7.854;2023-01-29T05:27:50;0.20;99.90
3528;DHT22;1778;47.966;7.854;2023-01-29T05:29:05;0.20;99.90
3528;DHT22;1778;47.966;7.854;2023-01-29T05:30:09;0.30;99.90
3528;DHT22;1778;47.966;7.854;2023-01-29T05:31:10;0.40;99.90
3528;DHT22;1778;47.966;7.854;2023-01-29T05:32:13;0.40;99.90
3528;DHT22;1778;47.966;7.854;2023-01-29T05:34:46;0.30;99.90
3528;DHT22;1778;47.966;7.854;2023-01-29T05:35:49;0.20;99.90
3528;DHT22;1778;47.966;7.854;2023-01-29T05:36:50;0.20;99.90
3528;DHT22;1778;47.966;7.854;2023-01-29T05:37:52;0.00;99.90
3528;DHT22;1778;47.966;7.854;2023-01-29T05:38:53;0.00;99.90
3528;DHT22;1778;47.966;7.854;2023-01-29T05:39:55;0.00;99.90
3528;DHT22;1778;47.966;7.854;2023-01-29T05:40:58;0.00;99.90
3528;DHT22;1778;47.966;7.854;2023-01-29T05:41:59;0.00;99.90
3528;DHT22;1778;47.966;7.854;2023-01-29T05:43:01;0.00;99.90
3528;DHT22;1778;47.966;7.854;2023-01-29T05:44:03;0.00;99.90
3528;DHT22;1778;47.966;7.854;2023-01-29T05:45:04;0.00;99.90
3528;DHT22;1778;47.966;7.854;2023-01-29T05:46:06;0.00;99.90
3528;DHT22;1778;47.966;7.854;2023-01-29T05:47:08;0.00;99.90
3528;DHT22;1778;47.966;7.854;2023-01-29T05:48:09;0.00;99.90
3528;DHT22;1778;47.966;7.854;2023-01-29T05:49:11;0.10;99.90
3528;DHT22;1778;47.966;7.854;2023-01-29T05:50:13;0.10;99.90
3528;DHT22;1778;47.966;7.854;2023-01-29T05:51:15;0.10;99.90
3528;DHT22;1778;47.966;7.854;2023-01-29T05:52:17;0.10;99.90
3528;DHT22;1778;47.966;7.854;2023-01-29T05:53:19;0.10;99.90
3528;DHT22;1778;47.966;7.854;2023-01-29T05:54:20;0.00;99.90
3528;DHT22;1778;47.966;7.854;2023-01-29T05:55:22;0.00;99.90
3528;DHT22;1778;47.966;7.854;2023-01-29T05:56:24;0.00;99.90
3528;DHT22;1778;47.966;7.854;2023-01-29T05:57:25;0.00;99.90
3528;DHT22;1778;47.966;7.854;2023-01-29T05:58:29;0.00;99.90
3528;DHT22;1778;47.966;7.854;2023-01-29T05:59:30;0.10;99.90
3528;DHT22;1778;47.966;7.854;2023-01-29T06:00:32;0.10;99.90
3528;DHT22;1778;47.966;7.854;2023-01-29T06:01:33;0.10;99.90
3528;DHT22;1778;47.966;7.854;2023-01-29T06:02:35;0.00;99.90
3528;DHT22;1778;47.966;7.854;2023-01-29T06:03:36;-0.10;99.90
3528;DHT22;1778;47.966;7.854;2023-01-29T06:04:37;-0.20;99.90
3528;DHT22;1778;47.966;7.854;2023-01-29T06:05:39;-0.20;99.90
3528;DHT22;1778;47.966;7.854;2023-01-29T06:06:42;-0.30;99.90
3528;DHT22;1778;47.966;7.854;2023-01-29T06:07:44;-0.30;99.90
3528;DHT22;1778;47.966;7.854;2023-01-29T06:08:46;-0.40;99.90
3528;DHT22;1778;47.966;7.854;2023-01-29T06:09:47;-0.40;99.90
3528;DHT22;1778;47.966;7.854;2023-01-29T06:10:49;-0.40;99.90
3528;DHT22;1778;47.966;7.854;2023-01-29T06:11:50;-0.40;99.90
3528;DHT22;1778;47.966;7.854;2023-01-29T06:12:52;-0.50;99.90
3528;DHT22;1778;47.966;7.854;2023-01-29T06:13:53;-0.40;99.90
3528;DHT22;1778;47.966;7.854;2023-01-29T06:14:55;-0.40;99.90
3528;DHT22;1778;47.966;7.854;2023-01-29T06:15:56;-0.40;99.90
3528;DHT22;1778;47.966;7.854;2023-01-29T06:16:58;-0.40;99.90
3528;DHT22;1778;47.966;7.854;2023-01-29T06:18:00;-0.40;99.90
3528;DHT22;1778;47.966;7.854;2023-01-29T06:19:01;-0.40;99.90
3528;DHT22;1778;47.966;7.854;2023-01-29T06:20:04;-0.40;99.90
3528;DHT22;1778;47.966;7.854;2023-01-29T06:21:07;-0.40;99.90
3528;DHT22;1778;47.966;7.854;2023-01-29T06:22:10;-0.50;99.90
3528;DHT22;1778;47.966;7.854;2023-01-29T06:23:11;-0.50;99.90
3528;DHT22;1778;47.966;7.854;2023-01-29T06:24:12;-0.60;99.90
3528;DHT22;1778;47.966;7.854;2023-01-29T06:25:14;-0.60;99.90
3528;DHT22;1778;47.966;7.854;2023-01-29T06:26:16;-0.70;99.90
3528;DHT22;1778;47.966;7.854;2023-01-29T06:27:17;-0.70;99.90
3528;DHT22;1778;47.966;7.854;2023-01-29T06:28:19;-0.70;99.90
3528;DHT22;1778;47.966;7.854;2023-01-29T06:29:21;-0.70;99.90
3528;DHT22;1778;47.966;7.854;2023-01-29T06:30:23;-0.80;99.90
3528;DHT22;1778;47.966;7.854;2023-01-29T06:31:24;-0.80;99.90
3528;DHT22;1778;47.966;7.854;2023-01-29T06:32:39;-0.80;99.90
3528;DHT22;1778;47.966;7.854;2023-01-29T06:33:40;-0.90;99.90
3528;DHT22;1778;47.966;7.854;2023-01-29T06:34:42;-0.90;99.90
3528;DHT22;1778;47.966;7.854;2023-01-29T06:35:44;-0.90;99.90
3528;DHT22;1778;47.966;7.854;2023-01-29T06:36:45;-1.00;99.90
3528;DHT22;1778;47.966;7.854;2023-01-29T06:37:47;-1.00;99.90
3528;DHT22;1778;47.966;7.854;2023-01-29T06:38:48;-1.00;99.90
3528;DHT22;1778;47.966;7.854;2023-01-29T06:39:50;-1.00;99.90
3528;DHT22;1778;47.966;7.854;2023-01-29T06:40:52;-1.00;99.90
3528;DHT22;1778;47.966;7.854;2023-01-29T06:41:54;-1.00;99.90
3528;DHT22;1778;47.966;7.854;2023-01-29T06:42:55;-1.10;99.90
3528;DHT22;1778;47.966;7.854;2023-01-29T06:43:57;-1.10;99.90
3528;DHT22;1778;47.966;7.854;2023-01-29T06:44:58;-1.10;99.90
3528;DHT22;1778;47.966;7.854;2023-01-29T06:46:00;-1.10;99.90
3528;DHT22;1778;47.966;7.854;2023-01-29T06:47:01;-1.20;99.90
3528;DHT22;1778;47.966;7.854;2023-01-29T06:48:03;-1.20;99.90
3528;DHT22;1778;47.966;7.854;2023-01-29T06:49:05;-1.10;99.90
3528;DHT22;1778;47.966;7.854;2023-01-29T06:50:06;-1.10;99.90
3528;DHT22;1778;47.966;7.854;2023-01-29T06:51:09;-1.00;99.90
3528;DHT22;1778;47.966;7.854;2023-01-29T06:52:11;-1.10;99.90
3528;DHT22;1778;47.966;7.854;2023-01-29T06:53:12;-1.10;99.90
3528;DHT22;1778;47.966;7.854;2023-01-29T06:54:13;-1.10;99.90
3528;DHT22;1778;47.966;7.854;2023-01-29T06:55:15;-1.20;99.90
3528;DHT22;1778;47.966;7.854;2023-01-29T06:56:16;-1.20;99.90
3528;DHT22;1778;47.966;7.854;2023-01-29T06:57:18;-1.10;99.90
3528;DHT22;1778;47.966;7.854;2023-01-29T06:58:20;-1.10;99.90
3528;DHT22;1778;47.966;7.854;2023-01-29T06:59:21;-1.20;99.90
3528;DHT22;1778;47.966;7.854;2023-01-29T07:00:23;-1.20;99.90
3528;DHT22;1778;47.966;7.854;2023-01-29T07:01:24;-1.30;99.90
3528;DHT22;1778;47.966;7.854;2023-01-29T07:02:36;-1.30;99.90
3528;DHT22;1778;47.966;7.854;2023-01-29T07:03:37;-1.40;99.90
3528;DHT22;1778;47.966;7.854;2023-01-29T07:04:40;-1.30;99.90
3528;DHT22;1778;47.966;7.854;2023-01-29T07:05:49;-1.20;99.90
3528;DHT22;1778;47.966;7.854;2023-01-29T07:06:50;-1.30;99.90
3528;DHT22;1778;47.966;7.854;2023-01-29T07:07:52;-1.40;99.90
3528;DHT22;1778;47.966;7.854;2023-01-29T07:08:54;-1.30;99.90
3528;DHT22;1778;47.966;7.854;2023-01-29T07:09:56;-1.30;99.90
3528;DHT22;1778;47.966;7.854;2023-01-29T07:10:58;-1.20;99.90
3528;DHT22;1778;47.966;7.854;2023-01-29T07:12:00;-1.20;99.90
3528;DHT22;1778;47.966;7.854;2023-01-29T07:13:02;-1.30;99.90
3528;DHT22;1778;47.966;7.854;2023-01-29T07:14:03;-1.20;99.90
3528;DHT22;1778;47.966;7.854;2023-01-29T07:15:06;-1.30;99.90
3528;DHT22;1778;47.966;7.854;2023-01-29T07:16:08;-1.30;99.90
3528;DHT22;1778;47.966;7.854;2023-01-29T07:17:10;-1.30;99.90
3528;DHT22;1778;47.966;7.854;2023-01-29T07:18:11;-1.40;99.90
3528;DHT22;1778;47.966;7.854;2023-01-29T07:19:13;-1.40;99.90
3528;DHT22;1778;47.966;7.854;2023-01-29T07:20:15;-1.30;99.90
3528;DHT22;1778;47.966;7.854;2023-01-29T07:21:16;-1.20;99.90
3528;DHT22;1778;47.966;7.854;2023-01-29T07:22:18;-1.20;99.90
3528;DHT22;1778;47.966;7.854;2023-01-29T07:23:20;-1.10;99.90
3528;DHT22;1778;47.966;7.854;2023-01-29T07:24:21;-1.10;99.90
3528;DHT22;1778;47.966;7.854;2023-01-29T07:25:24;-1.00;99.90
3528;DHT22;1778;47.966;7.854;2023-01-29T07:26:25;-1.10;99.90
3528;DHT22;1778;47.966;7.854;2023-01-29T07:27:27;-1.10;99.90
3528;DHT22;1778;47.966;7.854;2023-01-29T07:28:29;-1.10;99.90
3528;DHT22;1778;47.966;7.854;2023-01-29T07:29:30;-1.00;99.90
3528;DHT22;1778;47.966;7.854;2023-01-29T07:30:32;-0.90;99.90
3528;DHT22;1778;47.966;7.854;2023-01-29T07:31:34;-0.90;99.90
3528;DHT22;1778;47.966;7.854;2023-01-29T07:32:35;-1.00;99.90
3528;DHT22;1778;47.966;7.854;2023-01-29T07:33:37;-0.90;99.90
3528;DHT22;1778;47.966;7.854;2023-01-29T07:34:39;-1.00;99.90
3528;DHT22;1778;47.966;7.854;2023-01-29T07:35:41;-1.00;99.90
3528;DHT22;1778;47.966;7.854;2023-01-29T07:36:43;-0.90;99.90
3528;DHT22;1778;47.966;7.854;2023-01-29T07:37:48;-0.90;99.90
3528;DHT22;1778;47.966;7.854;2023-01-29T07:38:50;-0.90;99.90
3528;DHT22;1778;47.966;7.854;2023-01-29T07:39:52;-0.80;99.90
3528;DHT22;1778;47.966;7.854;2023-01-29T07:40:54;-0.80;99.90
3528;DHT22;1778;47.966;7.854;2023-01-29T07:41:56;-0.70;99.90
3528;DHT22;1778;47.966;7.854;2023-01-29T07:43:05;-0.70;99.90
3528;DHT22;1778;47.966;7.854;2023-01-29T07:44:07;-0.70;99.90
3528;DHT22;1778;47.966;7.854;2023-01-29T07:45:10;-0.70;99.90
3528;DHT22;1778;47.966;7.854;2023-01-29T07:46:11;-0.70;99.90
3528;DHT22;1778;47.966;7.854;2023-01-29T07:47:13;-0.60;99.90
3528;DHT22;1778;47.966;7.854;2023-01-29T07:48:17;-0.60;99.90
3528;DHT22;1778;47.966;7.854;2023-01-29T07:49:19;-0.60;99.90
3528;DHT22;1778;47.966;7.854;2023-01-29T07:50:22;-0.60;99.90
3528;DHT22;1778;47.966;7.854;2023-01-29T07:51:24;-0.50;99.90
3528;DHT22;1778;47.966;7.854;2023-01-29T07:52:25;-0.50;99.90
3528;DHT22;1778;47.966;7.854;2023-01-29T07:53:29;-0.50;99.90
3528;DHT22;1778;47.966;7.854;2023-01-29T07:54:30;-0.50;99.90
3528;DHT22;1778;47.966;7.854;2023-01-29T07:55:32;-0.50;99.90
3528;DHT22;1778;47.966;7.854;2023-01-29T07:56:34;-0.40;99.90
3528;DHT22;1778;47.966;7.854;2023-01-29T07:57:35;-0.40;99.90
3528;DHT22;1778;47.966;7.854;2023-01-29T07:58:37;-0.40;99.90
3528;DHT22;1778;47.966;7.854;2023-01-29T07:59:39;-0.40;99.90
3528;DHT22;1778;47.966;7.854;2023-01-29T08:00:40;-0.40;99.90
3528;DHT22;1778;47.966;7.854;2023-01-29T08:01:42;-0.30;99.90
3528;DHT22;1778;47.966;7.854;2023-01-29T08:02:44;-0.30;99.90
3528;DHT22;1778;47.966;7.854;2023-01-29T08:03:45;-0.20;99.90
3528;DHT22;1778;47.966;7.854;2023-01-29T08:04:48;-0.20;99.90
3528;DHT22;1778;47.966;7.854;2023-01-29T08:05:49;-0.20;99.90
3528;DHT22;1778;47.966;7.854;2023-01-29T08:06:51;-0.10;99.90
3528;DHT22;1778;47.966;7.854;2023-01-29T08:07:53;0.00;99.90
3528;DHT22;1778;47.966;7.854;2023-01-29T08:09:06;0.00;99.90